createdAt,value
2023-01-04T00:00:11.812Z,1014.46
2023-01-04T00:01:11.753Z,1014.43
2023-01-04T00:02:11.871Z,1014.43
2023-01-04T00:03:11.816Z,1014.44
2023-01-04T00:04:11.626Z,1014.41
2023-01-04T00:05:11.603Z,1014.39
2023-01-04T00:06:11.549Z,1014.35
2023-01-04T00:07:11.520Z,1014.31
2023-01-04T00:08:11.485Z,1014.36
2023-01-04T00:09:11.444Z,1014.31
2023-01-04T00:10:11.423Z,1014.32
2023-01-04T00:11:11.372Z,1014.30
2023-01-04T00:12:11.335Z,1014.29
2023-01-04T00:13:11.303Z,1014.25
2023-01-04T00:14:11.262Z,1014.25
2023-01-04T00:15:11.223Z,1014.23
2023-01-04T00:16:11.223Z,1014.21
2023-01-04T00:17:11.151Z,1014.16
2023-01-04T00:18:11.113Z,1014.16
2023-01-04T00:19:11.079Z,1014.12
2023-01-04T00:20:11.048Z,1014.16
2023-01-04T00:21:11.029Z,1014.14
2023-01-04T00:22:10.974Z,1014.10
2023-01-04T00:23:10.933Z,1014.08
2023-01-04T00:24:10.903Z,1014.03
2023-01-04T00:25:10.862Z,1014.04
2023-01-04T00:26:10.835Z,1014.02
2023-01-04T00:27:10.788Z,1014.02
2023-01-04T00:28:10.752Z,1014.01
2023-01-04T00:29:10.723Z,1014.01
2023-01-04T00:30:10.678Z,1014.04
2023-01-04T00:31:10.698Z,1014.07
2023-01-04T00:32:10.605Z,1014.05
2023-01-04T00:33:10.575Z,1014.04
2023-01-04T00:34:10.531Z,1014.01
2023-01-04T00:35:10.516Z,1014.02
2023-01-04T00:36:10.460Z,1014.05
2023-01-04T00:37:10.431Z,1014.04
2023-01-04T00:38:10.391Z,1013.99
2023-01-04T00:39:10.738Z,1013.95
2023-01-04T00:40:10.329Z,1013.96
2023-01-04T00:41:18.941Z,1014.00
2023-01-04T00:42:10.251Z,1013.87
2023-01-04T00:43:10.203Z,1013.89
2023-01-04T00:44:10.203Z,1013.91
2023-01-04T00:45:10.138Z,1013.87
2023-01-04T00:46:10.173Z,1013.83
2023-01-04T00:47:10.072Z,1013.86
2023-01-04T00:48:10.031Z,1013.81
2023-01-04T00:49:09.984Z,1013.84
2023-01-04T00:50:09.965Z,1013.84
2023-01-04T00:51:09.921Z,1013.85
2023-01-04T00:52:09.899Z,1013.82
2023-01-04T00:53:09.853Z,1013.87
2023-01-04T00:54:09.812Z,1013.77
2023-01-04T00:55:09.773Z,1013.74
2023-01-04T00:56:09.752Z,1013.70
2023-01-04T00:57:09.715Z,1013.69
2023-01-04T00:58:09.659Z,1013.64
2023-01-04T00:59:09.637Z,1013.64
2023-01-04T01:00:09.589Z,1013.64
2023-01-04T01:01:09.620Z,1013.63
2023-01-04T01:02:09.610Z,1013.63
2023-01-04T01:03:09.710Z,1013.61
2023-01-04T01:04:09.471Z,1013.62
2023-01-04T01:05:09.409Z,1013.55
2023-01-04T01:06:09.373Z,1013.63
2023-01-04T01:07:09.336Z,1013.53
2023-01-04T01:08:09.299Z,1013.55
2023-01-04T01:09:09.263Z,1013.51
2023-01-04T01:10:09.238Z,1013.49
2023-01-04T01:11:09.191Z,1013.45
2023-01-04T01:12:09.172Z,1013.42
2023-01-04T01:13:09.120Z,1013.41
2023-01-04T01:14:09.120Z,1013.38
2023-01-04T01:15:09.047Z,1013.43
2023-01-04T01:16:09.083Z,1013.36
2023-01-04T01:17:08.990Z,1013.38
2023-01-04T01:18:08.940Z,1013.39
2023-01-04T01:19:08.901Z,1013.36
2023-01-04T01:20:08.868Z,1013.43
2023-01-04T01:21:08.829Z,1013.37
2023-01-04T01:22:08.801Z,1013.34
2023-01-04T01:23:08.756Z,1013.38
2023-01-04T01:24:08.717Z,1013.37
2023-01-04T01:25:08.699Z,1013.39
2023-01-04T01:26:08.663Z,1013.36
2023-01-04T01:27:08.611Z,1013.25
2023-01-04T01:28:08.587Z,1013.28
2023-01-04T01:29:08.541Z,1013.24
2023-01-04T01:30:08.515Z,1013.24
2023-01-04T01:31:08.957Z,1013.23
2023-01-04T01:32:08.436Z,1013.19
2023-01-04T01:33:08.408Z,1013.18
2023-01-04T01:34:08.444Z,1013.15
2023-01-04T01:35:08.352Z,1013.16
2023-01-04T01:36:08.285Z,1013.07
2023-01-04T01:37:08.247Z,1013.09
2023-01-04T01:38:08.232Z,1013.12
2023-01-04T01:39:08.185Z,1013.04
2023-01-04T01:40:08.161Z,1013.08
2023-01-04T01:41:08.114Z,1013.09
2023-01-04T01:42:08.078Z,1013.00
2023-01-04T01:43:08.034Z,1013.04
2023-01-04T01:44:08.003Z,1013.10
2023-01-04T01:45:07.960Z,1013.08
2023-01-04T01:46:07.995Z,1013.04
2023-01-04T01:47:07.898Z,1013.05
2023-01-04T01:48:07.863Z,1013.09
2023-01-04T01:49:07.820Z,1013.04
2023-01-04T01:50:07.782Z,1012.99
2023-01-04T01:51:07.747Z,1013.00
2023-01-04T01:52:07.712Z,1012.95
2023-01-04T01:53:07.671Z,1013.02
2023-01-04T01:54:07.649Z,1012.96
2023-01-04T01:55:07.613Z,1012.97
2023-01-04T01:56:07.575Z,1012.97
2023-01-04T01:57:07.544Z,1012.96
2023-01-04T01:58:07.496Z,1012.98
2023-01-04T01:59:07.464Z,1013.03
2023-01-04T02:00:07.434Z,1013.03
2023-01-04T02:01:07.422Z,1012.97
2023-01-04T02:02:07.510Z,1012.95
2023-01-04T02:03:07.451Z,1012.96
2023-01-04T02:04:07.309Z,1012.91
2023-01-04T02:05:07.236Z,1012.91
2023-01-04T02:06:07.205Z,1012.96
2023-01-04T02:07:07.183Z,1012.90
2023-01-04T02:08:07.148Z,1012.93
2023-01-04T02:09:07.100Z,1012.88
2023-01-04T02:10:07.062Z,1012.89
2023-01-04T02:11:07.032Z,1012.85
2023-01-04T02:12:07.002Z,1012.78
2023-01-04T02:13:06.951Z,1012.79
2023-01-04T02:14:06.915Z,1012.73
2023-01-04T02:15:06.876Z,1012.72
2023-01-04T02:16:06.915Z,1012.67
2023-01-04T02:17:06.823Z,1012.64
2023-01-04T02:18:06.772Z,1012.72
2023-01-04T02:19:06.734Z,1012.71
2023-01-04T02:20:06.698Z,1012.60
2023-01-04T02:21:06.663Z,1012.64
2023-01-04T02:22:06.629Z,1012.64
2023-01-04T02:23:06.595Z,1012.59
2023-01-04T02:24:06.557Z,1012.62
2023-01-04T02:25:06.519Z,1012.52
2023-01-04T02:26:06.494Z,1012.53
2023-01-04T02:27:06.449Z,1012.59
2023-01-04T02:28:06.409Z,1012.60
2023-01-04T02:29:06.391Z,1012.60
2023-01-04T02:30:06.341Z,1012.50
2023-01-04T02:31:06.368Z,1012.49
2023-01-04T02:32:06.271Z,1012.45
2023-01-04T02:33:06.225Z,1012.50
2023-01-04T02:34:06.193Z,1012.44
2023-01-04T02:35:06.157Z,1012.44
2023-01-04T02:36:06.121Z,1012.45
2023-01-04T02:37:06.082Z,1012.39
2023-01-04T02:38:06.050Z,1012.38
2023-01-04T02:39:06.014Z,1012.42
2023-01-04T02:40:05.976Z,1012.39
2023-01-04T02:41:05.945Z,1012.43
2023-01-04T02:42:05.901Z,1012.35
2023-01-04T02:43:08.472Z,1012.26
2023-01-04T02:44:05.902Z,1012.30
2023-01-04T02:45:05.796Z,1012.37
2023-01-04T02:46:05.802Z,1012.34
2023-01-04T02:47:05.790Z,1012.26
2023-01-04T02:48:05.690Z,1012.33
2023-01-04T02:49:05.648Z,1012.27
2023-01-04T02:50:05.873Z,1012.22
2023-01-04T02:51:05.591Z,1012.29
2023-01-04T02:52:05.546Z,1012.29
2023-01-04T02:53:05.515Z,1012.30
2023-01-04T02:54:05.465Z,1012.30
2023-01-04T02:55:05.443Z,1012.25
2023-01-04T02:56:05.398Z,1012.24
2023-01-04T02:57:06.183Z,1012.14
2023-01-04T02:58:05.333Z,1012.20
2023-01-04T02:59:05.281Z,1012.25
2023-01-04T03:00:05.250Z,1012.24
2023-01-04T03:01:05.234Z,1012.24
2023-01-04T03:02:05.294Z,1012.20
2023-01-04T03:03:05.225Z,1012.11
2023-01-04T03:04:05.175Z,1012.09
2023-01-04T03:05:05.065Z,1012.07
2023-01-04T03:06:05.036Z,1012.13
2023-01-04T03:07:04.997Z,1012.05
2023-01-04T03:08:04.960Z,1012.03
2023-01-04T03:09:04.928Z,1012.03
2023-01-04T03:10:04.894Z,1012.09
2023-01-04T03:11:04.854Z,1012.06
2023-01-04T03:12:04.841Z,1011.98
2023-01-04T03:13:04.787Z,1011.93
2023-01-04T03:14:30.983Z,1011.96
2023-01-04T03:15:04.721Z,1012.06
2023-01-04T03:16:04.706Z,1012.00
2023-01-04T03:17:04.659Z,1011.95
2023-01-04T03:18:04.597Z,1011.95
2023-01-04T03:19:04.563Z,1011.94
2023-01-04T03:20:04.530Z,1011.93
2023-01-04T03:21:04.507Z,1011.89
2023-01-04T03:22:04.498Z,1011.90
2023-01-04T03:23:04.417Z,1011.88
2023-01-04T03:24:04.379Z,1011.87
2023-01-04T03:25:04.357Z,1011.83
2023-01-04T03:26:04.308Z,1011.80
2023-01-04T03:27:04.275Z,1011.72
2023-01-04T03:28:04.234Z,1011.70
2023-01-04T03:29:04.214Z,1011.70
2023-01-04T03:30:04.160Z,1011.68
2023-01-04T03:31:04.166Z,1011.75
2023-01-04T03:32:04.093Z,1011.61
2023-01-04T03:33:04.053Z,1011.70
2023-01-04T03:34:04.018Z,1011.70
2023-01-04T03:35:03.996Z,1011.67
2023-01-04T03:36:03.961Z,1011.62
2023-01-04T03:37:03.911Z,1011.67
2023-01-04T03:38:03.876Z,1011.69
2023-01-04T03:39:03.832Z,1011.60
2023-01-04T03:40:03.803Z,1011.70
2023-01-04T03:41:03.768Z,1011.71
2023-01-04T03:42:03.730Z,1011.71
2023-01-04T03:43:03.690Z,1011.67
2023-01-04T03:44:03.660Z,1011.70
2023-01-04T03:45:09.736Z,1011.83
2023-01-04T03:46:03.595Z,1011.70
2023-01-04T03:47:03.586Z,1011.72
2023-01-04T03:48:03.514Z,1011.78
2023-01-04T03:49:03.477Z,1011.75
2023-01-04T03:50:03.643Z,1011.69
2023-01-04T03:51:03.419Z,1011.70
2023-01-04T03:52:03.371Z,1011.71
2023-01-04T03:53:03.331Z,1011.69
2023-01-04T03:54:03.292Z,1011.70
2023-01-04T03:55:03.250Z,1011.69
2023-01-04T03:56:03.223Z,1011.66
2023-01-04T03:57:03.185Z,1011.65
2023-01-04T03:58:03.162Z,1011.76
2023-01-04T03:59:03.111Z,1011.67
2023-01-04T04:00:03.077Z,1011.72
2023-01-04T04:01:03.120Z,1011.69
2023-01-04T04:02:03.105Z,1011.63
2023-01-04T04:03:02.966Z,1011.66
2023-01-04T04:04:03.002Z,1011.59
2023-01-04T04:05:02.889Z,1011.51
2023-01-04T04:06:02.862Z,1011.47
2023-01-04T04:07:02.845Z,1011.52
2023-01-04T04:08:02.808Z,1011.46
2023-01-04T04:09:02.747Z,1011.41
2023-01-04T04:10:02.721Z,1011.34
2023-01-04T04:11:02.684Z,1011.31
2023-01-04T04:12:02.644Z,1011.33
2023-01-04T04:13:02.601Z,1011.40
2023-01-04T04:14:02.581Z,1011.26
2023-01-04T04:15:02.526Z,1011.25
2023-01-04T04:16:02.558Z,1011.24
2023-01-04T04:17:02.480Z,1011.26
2023-01-04T04:18:02.424Z,1011.26
2023-01-04T04:19:08.223Z,1011.21
2023-01-04T04:20:02.373Z,1011.25
2023-01-04T04:21:02.310Z,1011.22
2023-01-04T04:22:02.277Z,1011.20
2023-01-04T04:23:02.241Z,1011.20
2023-01-04T04:24:02.287Z,1011.25
2023-01-04T04:25:02.168Z,1011.29
2023-01-04T04:26:02.132Z,1011.19
2023-01-04T04:27:02.105Z,1011.21
2023-01-04T04:28:02.058Z,1011.21
2023-01-04T04:29:02.032Z,1011.20
2023-01-04T04:30:01.983Z,1011.19
2023-01-04T04:31:01.952Z,1011.17
2023-01-04T04:32:01.964Z,1011.19
2023-01-04T04:33:01.875Z,1011.22
2023-01-04T04:34:01.835Z,1011.21
2023-01-04T04:35:01.797Z,1011.17
2023-01-04T04:36:01.758Z,1011.25
2023-01-04T04:37:01.723Z,1011.19
2023-01-04T04:38:01.703Z,1011.15
2023-01-04T04:39:01.660Z,1011.12
2023-01-04T04:40:01.618Z,1011.13
2023-01-04T04:41:01.588Z,1011.11
2023-01-04T04:42:01.549Z,1011.08
2023-01-04T04:43:01.518Z,1011.07
2023-01-04T04:44:01.469Z,1011.05
2023-01-04T04:45:01.435Z,1011.08
2023-01-04T04:46:01.495Z,1011.06
2023-01-04T04:47:01.387Z,1011.06
2023-01-04T04:48:01.336Z,1011.03
2023-01-04T04:49:01.284Z,1011.00
2023-01-04T04:50:01.256Z,1011.01
2023-01-04T04:51:01.218Z,1011.04
2023-01-04T04:52:01.183Z,1011.04
2023-01-04T04:53:01.139Z,1011.02
2023-01-04T04:54:01.101Z,1010.94
2023-01-04T04:55:01.076Z,1010.96
2023-01-04T04:56:01.038Z,1011.08
2023-01-04T04:57:00.994Z,1010.98
2023-01-04T04:58:00.965Z,1011.05
2023-01-04T04:59:00.925Z,1010.99
2023-01-04T05:00:00.884Z,1011.03
2023-01-04T05:01:00.919Z,1011.02
2023-01-04T05:02:01.019Z,1011.06
2023-01-04T05:03:00.912Z,1010.99
2023-01-04T05:04:00.756Z,1011.01
2023-01-04T05:05:00.707Z,1011.05
2023-01-04T05:06:00.667Z,1010.98
2023-01-04T05:07:00.628Z,1011.02
2023-01-04T05:08:00.598Z,1010.95
2023-01-04T05:09:00.555Z,1011.02
2023-01-04T05:10:00.526Z,1011.00
2023-01-04T05:11:00.507Z,1010.91
2023-01-04T05:12:00.457Z,1010.92
2023-01-04T05:13:00.420Z,1011.00
2023-01-04T05:14:00.387Z,1010.79
2023-01-04T05:15:00.342Z,1010.84
2023-01-04T05:16:00.408Z,1010.91
2023-01-04T05:17:00.356Z,1010.89
2023-01-04T05:18:00.245Z,1010.84
2023-01-04T05:19:00.200Z,1010.84
2023-01-04T05:20:00.181Z,1010.85
2023-01-04T05:21:00.190Z,1010.81
2023-01-04T05:22:00.119Z,1010.75
2023-01-04T05:23:00.069Z,1010.76
2023-01-04T05:24:00.015Z,1010.73
2023-01-04T05:24:59.987Z,1010.79
2023-01-04T05:25:59.962Z,1010.73
2023-01-04T05:26:59.916Z,1010.74
2023-01-04T05:27:59.891Z,1010.72
2023-01-04T05:28:59.834Z,1010.70
2023-01-04T05:29:59.819Z,1010.71
2023-01-04T05:30:59.763Z,1010.71
2023-01-04T05:31:59.819Z,1010.74
2023-01-04T05:32:59.687Z,1010.75
2023-01-04T05:33:59.657Z,1010.83
2023-01-04T05:34:59.612Z,1010.79
2023-01-04T05:35:59.581Z,1010.81
2023-01-04T05:36:59.549Z,1010.85
2023-01-04T05:37:59.512Z,1010.90
2023-01-04T05:38:59.469Z,1010.82
2023-01-04T05:39:59.436Z,1010.82
2023-01-04T05:40:59.397Z,1010.90
2023-01-04T05:41:59.368Z,1010.90
2023-01-04T05:42:59.338Z,1010.85
2023-01-04T05:43:59.337Z,1010.91
2023-01-04T05:44:59.270Z,1010.89
2023-01-04T05:45:59.277Z,1010.85
2023-01-04T05:46:59.187Z,1010.83
2023-01-04T05:47:59.148Z,1010.86
2023-01-04T05:48:59.112Z,1010.83
2023-01-04T05:49:59.073Z,1010.77
2023-01-04T05:50:59.037Z,1010.72
2023-01-04T05:51:59.016Z,1010.69
2023-01-04T05:52:58.964Z,1010.70
2023-01-04T05:53:58.939Z,1010.66
2023-01-04T05:54:58.905Z,1010.64
2023-01-04T05:55:58.866Z,1010.69
2023-01-04T05:56:58.823Z,1010.61
2023-01-04T05:57:58.788Z,1010.64
2023-01-04T05:58:58.752Z,1010.66
2023-01-04T05:59:58.714Z,1010.59
2023-01-04T06:00:58.733Z,1010.65
2023-01-04T06:01:58.832Z,1010.61
2023-01-04T06:02:58.863Z,1010.56
2023-01-04T06:03:58.635Z,1010.49
2023-01-04T06:04:59.640Z,1010.52
2023-01-04T06:05:58.499Z,1010.38
2023-01-04T06:06:58.463Z,1010.42
2023-01-04T06:07:58.430Z,1010.42
2023-01-04T06:08:58.396Z,1010.38
2023-01-04T06:09:58.358Z,1010.36
2023-01-04T06:10:58.328Z,1010.42
2023-01-04T06:11:58.288Z,1010.37
2023-01-04T06:12:58.243Z,1010.37
2023-01-04T06:13:58.205Z,1010.34
2023-01-04T06:14:58.197Z,1010.43
2023-01-04T06:15:58.145Z,1010.37
2023-01-04T06:16:58.207Z,1010.26
2023-01-04T06:17:58.075Z,1010.19
2023-01-04T06:18:58.030Z,1010.17
2023-01-04T06:19:58.011Z,1010.17
2023-01-04T06:20:57.976Z,1010.15
2023-01-04T06:21:57.928Z,1010.23
2023-01-04T06:22:57.899Z,1010.23
2023-01-04T06:23:57.855Z,1010.35
2023-01-04T06:24:57.816Z,1010.38
2023-01-04T06:25:57.779Z,1010.34
2023-01-04T06:26:57.751Z,1010.18
2023-01-04T06:27:57.708Z,1010.26
2023-01-04T06:28:57.686Z,1010.31
2023-01-04T06:29:57.649Z,1010.41
2023-01-04T06:30:57.644Z,1010.26
2023-01-04T06:31:57.570Z,1010.37
2023-01-04T06:32:57.525Z,1010.30
2023-01-04T06:33:57.491Z,1010.26
2023-01-04T06:34:57.460Z,1010.22
2023-01-04T06:35:57.423Z,1010.21
2023-01-04T06:36:57.382Z,1010.16
2023-01-04T06:37:57.347Z,1010.12
2023-01-04T06:38:57.327Z,1010.12
2023-01-04T06:39:57.274Z,1010.06
2023-01-04T06:40:57.257Z,1010.06
2023-01-04T06:42:05.367Z,1010.00
2023-01-04T06:42:57.170Z,1009.98
2023-01-04T06:43:57.133Z,1009.93
2023-01-04T06:44:57.108Z,1009.99
2023-01-04T06:45:57.105Z,1010.02
2023-01-04T06:46:57.024Z,1009.96
2023-01-04T06:47:57.006Z,1009.92
2023-01-04T06:48:56.956Z,1009.98
2023-01-04T06:49:56.921Z,1009.95
2023-01-04T06:50:56.880Z,1009.89
2023-01-04T06:51:56.859Z,1009.90
2023-01-04T06:52:56.822Z,1009.95
2023-01-04T06:53:56.777Z,1009.94
2023-01-04T06:54:56.737Z,1010.03
2023-01-04T06:55:56.704Z,1010.06
2023-01-04T06:56:56.685Z,1010.04
2023-01-04T06:57:59.722Z,1010.08
2023-01-04T06:58:56.619Z,1010.16
2023-01-04T06:59:56.560Z,1010.11
2023-01-04T07:00:56.558Z,1010.13
2023-01-04T07:01:56.703Z,1010.08
2023-01-04T07:03:13.881Z,1010.09
2023-01-04T07:03:56.477Z,1010.08
2023-01-04T07:04:56.423Z,1010.18
2023-01-04T07:05:56.348Z,1010.16
2023-01-04T07:06:56.315Z,1010.19
2023-01-04T07:07:56.275Z,1010.17
2023-01-04T07:08:56.240Z,1010.20
2023-01-04T07:09:56.203Z,1010.17
2023-01-04T07:10:56.168Z,1010.13
2023-01-04T07:11:56.132Z,1010.22
2023-01-04T07:12:56.105Z,1010.20
2023-01-04T07:13:56.065Z,1010.17
2023-01-04T07:14:56.025Z,1010.16
2023-01-04T07:15:56.038Z,1010.13
2023-01-04T07:16:55.964Z,1010.08
2023-01-04T07:17:55.932Z,1010.07
2023-01-04T07:18:55.894Z,1010.08
2023-01-04T07:19:55.849Z,1010.14
2023-01-04T07:20:55.807Z,1010.06
2023-01-04T07:21:55.791Z,1010.05
2023-01-04T07:22:55.733Z,1010.05
2023-01-04T07:23:56.565Z,1010.14
2023-01-04T07:24:55.663Z,1010.08
2023-01-04T07:25:55.640Z,1010.07
2023-01-04T07:26:55.590Z,1010.01
2023-01-04T07:27:55.559Z,1010.10
2023-01-04T07:28:55.526Z,1010.11
2023-01-04T07:29:55.496Z,1009.94
2023-01-04T07:30:55.511Z,1009.98
2023-01-04T07:31:55.415Z,1010.06
2023-01-04T07:32:55.382Z,1010.11
2023-01-04T07:33:55.342Z,1010.13
2023-01-04T07:34:55.307Z,1010.12
2023-01-04T07:35:55.311Z,1010.09
2023-01-04T07:36:55.245Z,1010.20
2023-01-04T07:37:58.703Z,1010.12
2023-01-04T07:38:55.165Z,1010.13
2023-01-04T07:39:55.155Z,1010.14
2023-01-04T07:40:55.974Z,1010.16
2023-01-04T07:41:55.059Z,1010.14
2023-01-04T07:42:55.026Z,1010.13
2023-01-04T07:43:54.984Z,1010.10
2023-01-04T07:44:54.951Z,1010.08
2023-01-04T07:45:54.982Z,1010.00
2023-01-04T07:46:54.921Z,1010.07
2023-01-04T07:47:54.849Z,1010.04
2023-01-04T07:48:54.809Z,1010.04
2023-01-04T07:49:54.783Z,1010.09
2023-01-04T07:50:54.809Z,1010.04
2023-01-04T07:51:54.722Z,1010.05
2023-01-04T07:52:54.680Z,1010.04
2023-01-04T07:53:54.915Z,1009.96
2023-01-04T07:54:54.596Z,1009.94
2023-01-04T07:55:54.560Z,1009.94
2023-01-04T07:56:54.532Z,1010.03
2023-01-04T07:57:54.526Z,1009.96
2023-01-04T07:58:54.454Z,1009.99
2023-01-04T07:59:54.420Z,1009.96
2023-01-04T08:00:54.390Z,1009.93
2023-01-04T08:01:54.443Z,1010.06
2023-01-04T08:02:54.407Z,1010.06
2023-01-04T08:03:54.269Z,1010.11
2023-01-04T08:04:54.263Z,1010.12
2023-01-04T08:05:54.204Z,1010.07
2023-01-04T08:06:54.171Z,1010.09
2023-01-04T08:07:54.133Z,1010.13
2023-01-04T08:08:54.110Z,1010.12
2023-01-04T08:09:54.062Z,1010.08
2023-01-04T08:10:54.039Z,1010.08
2023-01-04T08:11:54.004Z,1010.04
2023-01-04T08:12:53.971Z,1010.02
2023-01-04T08:13:53.914Z,1010.08
2023-01-04T08:14:53.882Z,1010.02
2023-01-04T08:15:53.891Z,1010.00
2023-01-04T08:16:53.810Z,1010.01
2023-01-04T08:17:53.781Z,1010.01
2023-01-04T08:18:53.742Z,1009.99
2023-01-04T08:19:53.704Z,1010.01
2023-01-04T08:20:58.448Z,1010.03
2023-01-04T08:21:53.632Z,1009.96
2023-01-04T08:22:53.596Z,1009.94
2023-01-04T08:23:53.568Z,1009.91
2023-01-04T08:24:53.525Z,1009.97
2023-01-04T08:25:53.489Z,1009.90
2023-01-04T08:26:53.505Z,1010.02
2023-01-04T08:27:53.445Z,1010.00
2023-01-04T08:28:53.385Z,1010.01
2023-01-04T08:29:53.419Z,1009.98
2023-01-04T08:30:53.351Z,1010.00
2023-01-04T08:31:53.319Z,1010.02
2023-01-04T08:32:53.238Z,1009.99
2023-01-04T08:33:53.210Z,1010.03
2023-01-04T08:34:53.173Z,1009.99
2023-01-04T08:35:53.133Z,1009.95
2023-01-04T08:36:53.096Z,1009.97
2023-01-04T08:37:53.064Z,1009.98
2023-01-04T08:39:01.583Z,1009.94
2023-01-04T08:39:53.057Z,1009.88
2023-01-04T08:40:59.803Z,1009.95
2023-01-04T08:42:20.266Z,1009.97
2023-01-04T08:42:52.889Z,1009.88
2023-01-04T08:43:52.853Z,1009.94
2023-01-04T08:44:58.707Z,1009.89
2023-01-04T08:45:52.775Z,1009.95
2023-01-04T08:46:52.793Z,1009.90
2023-01-04T08:47:52.704Z,1009.85
2023-01-04T08:48:52.678Z,1009.88
2023-01-04T08:49:52.678Z,1009.87
2023-01-04T08:50:52.609Z,1009.85
2023-01-04T08:51:52.612Z,1009.88
2023-01-04T08:52:52.528Z,1009.90
2023-01-04T08:53:52.504Z,1009.74
2023-01-04T08:54:52.460Z,1009.90
2023-01-04T08:55:52.433Z,1009.89
2023-01-04T08:56:52.405Z,1009.90
2023-01-04T08:57:52.358Z,1009.96
2023-01-04T08:58:52.320Z,1009.89
2023-01-04T08:59:52.283Z,1009.91
2023-01-04T09:00:52.249Z,1009.93
2023-01-04T09:01:52.336Z,1009.89
2023-01-04T09:02:52.408Z,1009.95
2023-01-04T09:03:52.144Z,1009.95
2023-01-04T09:04:52.201Z,1009.92
2023-01-04T09:05:52.071Z,1009.91
2023-01-04T09:06:52.041Z,1010.04
2023-01-04T09:07:52.000Z,1009.99
2023-01-04T09:08:51.973Z,1010.01
2023-01-04T09:09:51.947Z,1009.93
2023-01-04T09:10:51.901Z,1010.02
2023-01-04T09:11:51.863Z,1009.99
2023-01-04T09:12:51.830Z,1010.08
2023-01-04T09:13:51.791Z,1010.12
2023-01-04T09:14:51.787Z,1010.10
2023-01-04T09:15:51.766Z,1010.08
2023-01-04T09:16:51.690Z,1009.96
2023-01-04T09:18:29.165Z,1010.04
2023-01-04T09:18:51.626Z,1010.04
2023-01-04T09:19:51.576Z,1010.07
2023-01-04T09:20:51.562Z,1010.11
2023-01-04T09:21:51.568Z,1010.06
2023-01-04T09:22:51.496Z,1010.06
2023-01-04T09:23:51.450Z,1010.08
2023-01-04T09:24:51.404Z,1010.10
2023-01-04T09:25:51.372Z,1010.01
2023-01-04T09:26:51.340Z,1010.09
2023-01-04T09:27:51.312Z,1010.00
2023-01-04T09:28:51.265Z,1009.89
2023-01-04T09:29:51.230Z,1009.91
2023-01-04T09:30:51.206Z,1009.95
2023-01-04T09:31:51.179Z,1010.03
2023-01-04T09:32:51.131Z,1010.07
2023-01-04T09:34:51.051Z,1010.00
2023-01-04T09:35:51.022Z,1009.96
2023-01-04T09:36:50.981Z,1009.86
2023-01-04T09:37:50.973Z,1009.98
2023-01-04T09:38:50.918Z,1010.01
2023-01-04T09:39:50.891Z,1009.96
2023-01-04T09:40:50.867Z,1009.96
2023-01-04T09:41:50.809Z,1009.90
2023-01-04T09:42:50.774Z,1009.89
2023-01-04T09:43:50.804Z,1009.86
2023-01-04T09:45:50.687Z,1009.91
2023-01-04T09:46:50.695Z,1009.86
2023-01-04T09:47:50.600Z,1009.95
2023-01-04T09:48:50.571Z,1009.92
2023-01-04T09:49:50.544Z,1009.95
2023-01-04T09:50:50.497Z,1009.83
2023-01-04T09:51:50.455Z,1009.92
2023-01-04T09:52:50.457Z,1009.86
2023-01-04T09:53:50.394Z,1009.89
2023-01-04T09:54:50.359Z,1009.82
2023-01-04T09:55:50.328Z,1009.88
2023-01-04T09:56:50.285Z,1009.88
2023-01-04T09:57:50.255Z,1009.83
2023-01-04T09:58:50.235Z,1009.87
2023-01-04T09:59:50.287Z,1009.86
2023-01-04T10:00:50.207Z,1009.84
2023-01-04T10:01:50.460Z,1009.89
2023-01-04T10:02:50.253Z,1009.84
2023-01-04T10:03:50.086Z,1009.80
2023-01-04T10:04:50.016Z,1009.86
2023-01-04T10:05:49.980Z,1009.92
2023-01-04T10:06:49.937Z,1009.76
2023-01-04T10:07:49.913Z,1009.93
2023-01-04T10:08:49.869Z,1009.89
2023-01-04T10:09:49.837Z,1009.87
2023-01-04T10:10:49.804Z,1009.87
2023-01-04T10:11:49.765Z,1009.92
2023-01-04T10:12:49.740Z,1009.91
2023-01-04T10:13:49.714Z,1009.88
2023-01-04T10:14:49.676Z,1009.82
2023-01-04T10:15:49.726Z,1009.86
2023-01-04T10:21:49.449Z,1009.77
2023-01-04T10:22:49.389Z,1009.81
2023-01-04T10:23:49.367Z,1009.76
2023-01-04T10:24:49.329Z,1009.79
2023-01-04T10:25:49.284Z,1009.72
2023-01-04T10:26:49.252Z,1009.70
2023-01-04T10:27:49.228Z,1009.63
2023-01-04T10:28:49.181Z,1009.78
2023-01-04T10:29:49.142Z,1009.69
2023-01-04T10:30:49.135Z,1009.70
2023-01-04T10:31:49.185Z,1009.64
2023-01-04T10:32:49.058Z,1009.51
2023-01-04T10:33:49.009Z,1009.61
2023-01-04T10:34:48.986Z,1009.62
2023-01-04T10:35:48.948Z,1009.63
2023-01-04T10:36:48.904Z,1009.59
2023-01-04T10:37:48.867Z,1009.61
2023-01-04T10:38:48.834Z,1009.60
2023-01-04T10:39:48.836Z,1009.62
2023-01-04T10:40:48.775Z,1009.49
2023-01-04T10:41:48.734Z,1009.61
2023-01-04T10:42:48.699Z,1009.54
2023-01-04T10:44:12.252Z,1009.51
2023-01-04T10:44:48.622Z,1009.51
2023-01-04T10:45:48.604Z,1009.47
2023-01-04T10:46:48.611Z,1009.47
2023-01-04T10:47:48.519Z,1009.48
2023-01-04T10:48:48.498Z,1009.43
2023-01-04T10:49:48.447Z,1009.45
2023-01-04T10:50:48.423Z,1009.45
2023-01-04T10:51:48.390Z,1009.41
2023-01-04T10:52:48.527Z,1009.45
2023-01-04T10:53:48.312Z,1009.40
2023-01-04T10:54:48.290Z,1009.38
2023-01-04T10:56:23.945Z,1009.33
2023-01-04T10:56:48.204Z,1009.32
2023-01-04T10:57:48.170Z,1009.26
2023-01-04T10:58:48.158Z,1009.18
2023-01-04T10:59:48.102Z,1009.19
2023-01-04T11:00:48.100Z,1009.14
2023-01-04T11:01:48.216Z,1009.14
2023-01-04T11:02:48.214Z,1009.26
2023-01-04T11:03:48.071Z,1009.24
2023-01-04T11:04:47.932Z,1009.25
2023-01-04T11:05:47.893Z,1009.17
2023-01-04T11:06:47.861Z,1009.12
2023-01-04T11:07:47.835Z,1009.06
2023-01-04T11:08:47.787Z,1009.09
2023-01-04T11:09:47.758Z,1009.11
2023-01-04T11:10:47.720Z,1009.06
2023-01-04T11:11:47.690Z,1009.15
2023-01-04T11:12:47.651Z,1009.11
2023-01-04T11:13:47.612Z,1009.08
2023-01-04T11:14:47.579Z,1008.96
2023-01-04T11:15:47.548Z,1009.10
2023-01-04T11:16:47.534Z,1009.07
2023-01-04T11:17:47.478Z,1009.00
2023-01-04T11:18:47.436Z,1008.91
2023-01-04T11:19:47.410Z,1009.00
2023-01-04T11:20:47.385Z,1009.04
2023-01-04T11:21:47.335Z,1009.12
2023-01-04T11:22:47.347Z,1008.98
2023-01-04T11:23:47.265Z,1008.96
2023-01-04T11:25:32.610Z,1008.90
2023-01-04T11:25:53.685Z,1008.92
2023-01-04T11:26:47.259Z,1008.93
2023-01-04T11:27:47.125Z,1008.94
2023-01-04T11:28:47.092Z,1008.85
2023-01-04T11:29:47.057Z,1008.96
2023-01-04T11:30:47.055Z,1008.85
2023-01-04T11:31:47.048Z,1008.93
2023-01-04T11:32:46.954Z,1008.89
2023-01-04T11:33:46.913Z,1008.79
2023-01-04T11:34:46.883Z,1008.82
2023-01-04T11:35:46.894Z,1008.72
2023-01-04T11:36:46.822Z,1008.65
2023-01-04T11:37:46.792Z,1008.74
2023-01-04T11:38:46.741Z,1008.74
2023-01-04T11:39:46.712Z,1008.70
2023-01-04T11:40:46.681Z,1008.74
2023-01-04T11:41:46.648Z,1008.73
2023-01-04T11:42:46.609Z,1008.71
2023-01-04T11:43:46.574Z,1008.76
2023-01-04T11:44:46.571Z,1008.59
2023-01-04T11:45:46.560Z,1008.60
2023-01-04T11:46:46.468Z,1008.68
2023-01-04T11:47:46.434Z,1008.71
2023-01-04T11:48:46.402Z,1008.58
2023-01-04T11:49:46.382Z,1008.53
2023-01-04T11:50:46.335Z,1008.54
2023-01-04T11:51:46.364Z,1008.63
2023-01-04T11:52:46.274Z,1008.59
2023-01-04T11:53:46.226Z,1008.46
2023-01-04T11:54:46.192Z,1008.48
2023-01-04T11:55:46.158Z,1008.56
2023-01-04T11:56:46.123Z,1008.54
2023-01-04T11:57:46.098Z,1008.56
2023-01-04T11:58:46.052Z,1008.59
2023-01-04T11:59:46.020Z,1008.50
2023-01-04T12:00:45.995Z,1008.47
2023-01-04T12:01:45.981Z,1008.48
2023-01-04T12:03:02.463Z,1008.57
2023-01-04T12:03:45.886Z,1008.46
2023-01-04T12:04:45.844Z,1008.60
2023-01-04T12:05:45.823Z,1008.40
2023-01-04T12:06:45.778Z,1008.46
2023-01-04T12:07:45.815Z,1008.50
2023-01-04T12:08:45.714Z,1008.50
2023-01-04T12:09:45.682Z,1008.57
2023-01-04T12:10:45.647Z,1008.50
2023-01-04T12:11:45.627Z,1008.60